createdAt,value
2022-11-21T00:01:35.461Z,98653.66
2022-11-21T00:04:02.236Z,98647.75
2022-11-21T00:06:29.128Z,98651.25
2022-11-21T00:08:56.575Z,98647.84
2022-11-21T00:11:23.370Z,98641.97
2022-11-21T00:13:50.210Z,98636.94
2022-11-21T00:16:17.056Z,98641.19
2022-11-21T00:18:44.598Z,98645.34
2022-11-21T00:21:18.397Z,98651.28
2022-11-21T00:23:48.240Z,98653.84
2022-11-21T00:26:17.275Z,98643.78
2022-11-21T00:28:45.125Z,98641.31
2022-11-21T00:31:24.066Z,98644.63
2022-11-21T00:33:50.908Z,98642.13
2022-11-21T00:36:17.846Z,98643.81
2022-11-21T00:38:44.664Z,98632.06
2022-11-21T00:41:11.444Z,98628.69
2022-11-21T00:43:46.198Z,98629.56
2022-11-21T00:46:13.006Z,98637.13
2022-11-21T00:48:39.933Z,98629.59
2022-11-21T00:51:06.712Z,98633.03
2022-11-21T00:53:33.627Z,98643.16
2022-11-21T00:56:00.411Z,98641.53
2022-11-21T00:58:27.999Z,98634.81
2022-11-21T01:01:15.632Z,98643.25
2022-11-21T01:03:42.924Z,98635.75
2022-11-21T01:06:14.912Z,98623.13
2022-11-21T01:08:44.904Z,98626.47
2022-11-21T01:11:18.430Z,98627.34
2022-11-21T01:13:46.889Z,98628.09
2022-11-21T01:16:17.519Z,98634.81
2022-11-21T01:18:45.240Z,98631.41
2022-11-21T01:21:27.152Z,98629.66
2022-11-21T01:23:55.236Z,98626.31
2022-11-21T01:26:25.912Z,98629.66
2022-11-21T01:28:53.108Z,98637.25
2022-11-21T01:31:26.575Z,98639.78
2022-11-21T01:33:59.135Z,98639.03
2022-11-21T01:36:34.410Z,98643.25
2022-11-21T01:39:05.062Z,98637.47
2022-11-21T01:41:36.766Z,98647.63
2022-11-21T01:44:20.616Z,98646.00
2022-11-21T01:46:50.055Z,98647.75
2022-11-21T01:49:29.293Z,98647.75
2022-11-21T01:52:03.532Z,98638.59
2022-11-21T01:54:37.863Z,98639.50
2022-11-21T01:57:19.088Z,98635.31
2022-11-21T01:59:54.953Z,98630.34
2022-11-21T02:02:27.836Z,98636.22
2022-11-21T02:04:56.625Z,98635.38
2022-11-21T02:07:26.441Z,98642.06
2022-11-21T02:10:00.501Z,98642.06
2022-11-21T02:12:35.498Z,98640.38
2022-11-21T02:15:02.344Z,98634.47
2022-11-21T02:17:30.977Z,98640.38
2022-11-21T02:20:02.781Z,98635.31
2022-11-21T02:22:49.178Z,98628.66
2022-11-21T02:25:27.291Z,98632.94
2022-11-21T02:28:17.260Z,98627.91
2022-11-21T02:30:44.258Z,98630.47
2022-11-21T02:33:12.356Z,98639.72
2022-11-21T02:35:40.450Z,98640.56
2022-11-21T02:38:19.792Z,98636.34
2022-11-21T02:41:07.158Z,98638.00
2022-11-21T02:43:44.572Z,98649.78
2022-11-21T02:46:11.456Z,98640.53
2022-11-21T02:48:39.231Z,98642.16
2022-11-21T02:51:05.974Z,98643.00
2022-11-21T02:53:32.948Z,98641.28
2022-11-21T02:55:59.711Z,98635.38
2022-11-21T02:58:27.054Z,98646.31
2022-11-21T03:00:55.206Z,98656.41
2022-11-21T03:03:22.537Z,98660.56
2022-11-21T03:05:49.401Z,98649.66
2022-11-21T03:08:16.242Z,98651.31
2022-11-21T03:10:46.025Z,98645.38
2022-11-21T03:13:12.826Z,98647.06
2022-11-21T03:15:39.639Z,98637.00
2022-11-21T03:18:06.687Z,98632.75
2022-11-21T03:20:34.871Z,98641.97
2022-11-21T03:23:02.655Z,98632.72
2022-11-21T03:25:31.296Z,98635.25
2022-11-21T03:27:58.111Z,98627.72
2022-11-21T03:30:27.660Z,98636.13
2022-11-21T03:32:58.180Z,98649.59
2022-11-21T03:35:26.305Z,98642.88
2022-11-21T03:37:53.597Z,98651.28
2022-11-21T03:40:20.866Z,98642.81
2022-11-21T03:42:47.641Z,98642.72
2022-11-21T03:45:14.396Z,98645.22
2022-11-21T03:47:41.584Z,98638.47
2022-11-21T03:50:08.758Z,98624.16
2022-11-21T03:52:35.480Z,98622.44
2022-11-21T03:55:02.251Z,98630.84
2022-11-21T03:57:29.139Z,98632.44
2022-11-21T03:59:55.933Z,98628.22
2022-11-21T04:02:22.723Z,98641.63
2022-11-21T04:04:49.499Z,98639.09
2022-11-21T04:07:16.555Z,98648.31
2022-11-21T04:09:43.478Z,98643.19
2022-11-21T04:12:10.358Z,98643.25
2022-11-21T04:14:37.197Z,98648.22
2022-11-21T04:17:04.105Z,98651.59
2022-11-21T04:19:30.929Z,98652.41
2022-11-21T04:21:57.703Z,98645.63
2022-11-21T04:24:24.439Z,98650.63
2022-11-21T04:26:51.225Z,98640.56
2022-11-21T04:29:17.989Z,98643.06
2022-11-21T04:31:44.706Z,98650.63
2022-11-21T04:34:11.586Z,98642.22
2022-11-21T04:36:38.526Z,98641.41
2022-11-21T04:39:05.342Z,98641.44
2022-11-21T04:41:32.191Z,98637.22
2022-11-21T04:43:58.967Z,98636.38
2022-11-21T04:46:25.703Z,98639.78
2022-11-21T04:48:52.462Z,98627.13
2022-11-21T04:51:19.322Z,98628.00
2022-11-21T04:53:46.097Z,98633.88
2022-11-21T04:56:16.286Z,98634.72
2022-11-21T04:58:44.635Z,98639.78
2022-11-21T05:01:12.055Z,98633.06
2022-11-21T05:03:39.022Z,98631.44
2022-11-21T05:06:05.774Z,98626.47
2022-11-21T05:08:32.594Z,98632.38
2022-11-21T05:11:18.021Z,98623.16
2022-11-21T05:13:44.868Z,98614.78
2022-11-21T05:16:11.666Z,98629.06
2022-11-21T05:18:38.531Z,98622.31
2022-11-21T05:21:05.290Z,98619.75
2022-11-21T05:23:32.278Z,98628.16
2022-11-21T05:25:59.100Z,98627.31
2022-11-21T05:28:26.019Z,98609.59
2022-11-21T05:30:52.759Z,98616.31
2022-11-21T05:33:20.311Z,98617.13
2022-11-21T05:35:47.310Z,98613.75
2022-11-21T05:38:14.118Z,98606.16
2022-11-21T05:40:40.930Z,98619.63
2022-11-21T05:43:26.260Z,98613.72
2022-11-21T05:45:53.034Z,98612.94
2022-11-21T05:48:19.999Z,98614.63
2022-11-21T05:50:49.818Z,98612.09
2022-11-21T05:53:17.561Z,98610.44
2022-11-21T05:55:45.059Z,98607.94
2022-11-21T05:58:11.930Z,98601.19
2022-11-21T06:00:39.109Z,98601.19
2022-11-21T06:03:25.219Z,98599.47
2022-11-21T06:05:55.019Z,98601.19
2022-11-21T06:08:21.825Z,98598.66
2022-11-21T06:10:48.713Z,98600.31
2022-11-21T06:13:24.257Z,98596.13
2022-11-21T06:16:00.954Z,98597.84
2022-11-21T06:18:31.327Z,98591.19
2022-11-21T06:21:04.584Z,98590.38
2022-11-21T06:23:32.248Z,98591.31
2022-11-21T06:26:00.936Z,98596.34
2022-11-21T06:28:31.756Z,98594.72
2022-11-21T06:31:07.009Z,98594.72
2022-11-21T06:33:35.232Z,98599.81
2022-11-21T06:36:12.812Z,98604.84
2022-11-21T06:38:40.295Z,98597.25
2022-11-21T06:41:11.627Z,98610.72
2022-11-21T06:43:39.177Z,98606.47
2022-11-21T06:46:06.269Z,98600.59
2022-11-21T06:48:35.202Z,98603.97
2022-11-21T06:51:13.310Z,98596.38
2022-11-21T06:53:40.202Z,98601.44
2022-11-21T06:56:07.054Z,98606.50
2022-11-21T06:58:34.129Z,98600.56
2022-11-21T07:01:08.646Z,98608.91
2022-11-21T07:03:36.788Z,98608.03
2022-11-21T07:06:04.578Z,98611.41
2022-11-21T07:08:33.659Z,98599.59
2022-11-21T07:11:24.655Z,98600.41
2022-11-21T07:13:52.738Z,98601.22
2022-11-21T07:16:19.746Z,98598.66
2022-11-21T07:18:46.680Z,98596.06
2022-11-21T07:21:13.869Z,98599.41
2022-11-21T07:23:40.773Z,98588.47
2022-11-21T07:26:10.453Z,98595.19
2022-11-21T07:28:37.485Z,98597.66
2022-11-21T07:31:10.109Z,98578.31
2022-11-21T07:34:00.907Z,98587.50
2022-11-21T07:36:28.498Z,98585.84
2022-11-21T07:38:57.461Z,98584.09
2022-11-21T07:41:24.285Z,98594.13
2022-11-21T07:43:51.059Z,98589.03
2022-11-21T07:46:17.860Z,98589.75
2022-11-21T07:49:07.650Z,98580.44
2022-11-21T07:51:34.508Z,98587.13
2022-11-21T07:54:32.692Z,98582.84
2022-11-21T07:57:04.556Z,98581.88
2022-11-21T07:59:57.710Z,98576.81
2022-11-21T08:02:42.927Z,98581.00
2022-11-21T08:08:54.973Z,98569.13
2022-11-21T08:12:15.953Z,98559.84
2022-11-21T08:16:14.207Z,98559.75
2022-11-21T08:17:48.634Z,98560.50
2022-11-21T08:20:24.198Z,98568.84
2022-11-21T08:22:51.117Z,98561.09
2022-11-21T08:25:32.677Z,98567.78
2022-11-21T08:28:00.605Z,98560.84
2022-11-21T08:30:41.878Z,98558.72
2022-11-21T08:33:18.275Z,98557.38
2022-11-21T08:35:45.412Z,98557.72
2022-11-21T08:38:12.316Z,98559.53
2022-11-21T08:40:40.571Z,98560.00
2022-11-21T08:43:10.041Z,98551.41
2022-11-21T08:45:39.504Z,98556.72
2022-11-21T08:48:12.925Z,98559.28
2022-11-21T08:50:40.244Z,98543.50
2022-11-21T08:53:07.180Z,98538.06
2022-11-21T08:55:34.147Z,98536.88
2022-11-21T08:58:01.099Z,98528.94
2022-11-21T09:00:28.029Z,98532.69
2022-11-21T09:03:05.790Z,98520.72
2022-11-21T09:05:35.359Z,98520.56
2022-11-21T09:08:02.231Z,98512.09
2022-11-21T09:10:29.513Z,98501.59
2022-11-21T09:13:00.918Z,98496.91
2022-11-21T09:15:46.568Z,98497.63
2022-11-21T09:18:13.538Z,98489.88
2022-11-21T09:20:47.581Z,98489.44
2022-11-21T09:23:16.599Z,98487.97
2022-11-21T09:25:44.713Z,98482.25
2022-11-21T09:28:13.941Z,98485.47
2022-11-21T09:30:42.871Z,98475.38
2022-11-21T09:33:17.056Z,98480.34
2022-11-21T09:35:44.439Z,98470.97
2022-11-21T09:38:12.580Z,98463.00
2022-11-21T09:40:46.200Z,98462.34
2022-11-21T09:43:39.669Z,98459.06
2022-11-21T09:46:14.018Z,98461.16
2022-11-21T09:49:06.122Z,98462.84
2022-11-21T09:51:37.571Z,98458.84
2022-11-21T09:54:19.855Z,98454.72
2022-11-21T09:56:48.678Z,98457.59
2022-11-21T09:59:38.982Z,98456.03
2022-11-21T10:02:19.863Z,98453.91
2022-11-21T10:04:48.985Z,98442.59
2022-11-21T10:07:21.562Z,98427.41
2022-11-21T10:10:36.175Z,98428.88
2022-11-21T10:13:32.367Z,98429.78
2022-11-21T10:16:18.227Z,98422.47
2022-11-21T10:19:11.769Z,98423.84
2022-11-21T10:22:17.593Z,98409.81
2022-11-21T10:25:01.857Z,98403.94
2022-11-21T10:28:03.425Z,98402.47
2022-11-21T10:30:30.922Z,98407.78
2022-11-21T10:33:04.788Z,98397.53
2022-11-21T10:35:57.682Z,98386.34
2022-11-21T10:38:29.260Z,98393.25
2022-11-21T10:41:07.513Z,98382.75
2022-11-21T10:44:06.541Z,98363.50
2022-11-21T10:46:33.880Z,98373.63
2022-11-21T10:49:05.104Z,98371.13
2022-11-21T10:51:58.520Z,98362.63
2022-11-21T10:54:34.469Z,98353.59
2022-11-21T10:57:20.109Z,98347.41
2022-11-21T11:00:12.579Z,98348.44
2022-11-21T11:03:04.871Z,98340.31
2022-11-21T11:05:37.636Z,98335.03
2022-11-21T11:08:15.373Z,98326.38
2022-11-21T11:11:01.888Z,98321.53
2022-11-21T11:13:50.622Z,98309.84
2022-11-21T11:16:21.535Z,98310.13
2022-11-21T11:19:00.227Z,98316.19
2022-11-21T11:21:46.316Z,98325.16
2022-11-21T11:24:13.133Z,98308.31
2022-11-21T11:26:49.447Z,98305.13
2022-11-21T11:29:30.411Z,98298.47
2022-11-21T11:32:01.884Z,98295.06
2022-11-21T11:35:27.332Z,98292.72
2022-11-21T11:38:09.649Z,98286.25
2022-11-21T11:40:50.613Z,98280.66
2022-11-21T11:44:37.530Z,98277.19
2022-11-21T11:47:37.510Z,98267.47
2022-11-21T11:50:19.310Z,98262.84
2022-11-21T11:52:57.141Z,98258.59
2022-11-21T11:55:49.015Z,98245.72
2022-11-21T11:58:41.672Z,98237.31
2022-11-21T12:01:37.231Z,98235.09
2022-11-21T12:04:18.946Z,98227.66
2022-11-21T12:10:17.859Z,98215.97
2022-11-21T12:13:03.534Z,98206.56
2022-11-21T12:15:57.300Z,98216.78
2022-11-21T12:19:02.509Z,98196.75
2022-11-21T12:21:34.158Z,98194.41
2022-11-21T12:24:07.971Z,98188.06
2022-11-21T12:27:20.637Z,98182.81
2022-11-21T12:30:24.343Z,98172.78
2022-11-21T12:33:24.042Z,98168.34
2022-11-21T12:36:47.762Z,98166.00
2022-11-21T12:39:43.963Z,98160.50
2022-11-21T12:42:48.496Z,98152.84
2022-11-21T12:45:34.156Z,98151.53
2022-11-21T12:48:44.176Z,98143.13
2022-11-21T12:52:02.386Z,98134.06
2022-11-21T12:54:57.154Z,98133.56
2022-11-21T13:08:00.207Z,98126.19
2022-11-21T13:10:29.097Z,98109.53
2022-11-21T13:13:10.588Z,98103.91
2022-11-21T13:16:37.120Z,98107.22
2022-11-21T13:19:38.019Z,98097.28
2022-11-21T13:22:06.923Z,98097.91
2022-11-21T13:24:56.969Z,98094.06
2022-11-21T13:27:39.388Z,98082.22
2022-11-21T13:30:13.986Z,98078.16
2022-11-21T13:32:56.695Z,98064.00
2022-11-21T13:35:24.622Z,98066.63
2022-11-21T13:38:08.866Z,98054.19
2022-11-21T13:40:38.932Z,98043.44
2022-11-21T13:46:02.346Z,98016.84
2022-11-21T13:48:34.821Z,98014.59
2022-11-21T13:51:44.156Z,97999.78
2022-11-21T13:55:07.637Z,98000.06
2022-11-21T13:58:04.056Z,97989.31
2022-11-21T14:01:04.889Z,97983.50
2022-11-21T14:04:01.228Z,97973.63
2022-11-21T14:06:33.479Z,97958.63
2022-11-21T14:09:16.709Z,97974.75
2022-11-21T14:12:05.714Z,97957.91
2022-11-21T14:15:08.758Z,97961.47
2022-11-21T14:18:03.609Z,97969.03
2022-11-21T14:20:54.215Z,97951.38
2022-11-21T14:23:24.584Z,97958.25
2022-11-21T14:29:48.980Z,97942.78
2022-11-21T14:32:16.330Z,97930.16
2022-11-21T14:34:43.685Z,97930.94
2022-11-21T14:37:14.146Z,97915.72
2022-11-21T14:39:45.084Z,97913.03
2022-11-21T14:42:18.461Z,97909.63
2022-11-21T14:44:46.844Z,97892.94
2022-11-21T14:47:26.588Z,97886.22
2022-11-21T14:50:05.306Z,97878.00
2022-11-21T14:52:35.583Z,97876.41
2022-11-21T14:55:34.397Z,97867.25
2022-11-21T14:58:04.340Z,97851.44
2022-11-21T15:03:24.320Z,97850.78
2022-11-21T15:06:05.254Z,97849.97
2022-11-21T15:09:14.805Z,97866.03
2022-11-21T15:11:53.902Z,97860.31
2022-11-21T15:14:50.123Z,97852.13
2022-11-21T15:18:24.407Z,97852.47
2022-11-21T15:20:26.714Z,97844.28
2022-11-21T15:23:02.322Z,97845.16
2022-11-21T15:25:48.454Z,97844.34
2022-11-21T15:28:19.240Z,97837.72
2022-11-21T15:30:46.876Z,97838.66
2022-11-21T15:33:21.416Z,97834.53
2022-11-21T15:35:58.807Z,97828.72
2022-11-21T15:38:45.505Z,97824.63
2022-11-21T15:41:13.595Z,97814.63
2022-11-21T15:43:55.619Z,97809.75
2022-11-21T15:46:23.776Z,97818.31
2022-11-21T15:48:53.132Z,97813.22
2022-11-21T15:54:23.340Z,97799.28
2022-11-21T15:56:54.233Z,97800.97
2022-11-21T15:57:11.099Z,97813.38
2022-11-21T15:59:23.895Z,97793.59
2022-11-21T16:01:50.609Z,97788.53
2022-11-21T16:04:22.376Z,97781.91
2022-11-21T16:06:51.894Z,97764.38
2022-11-21T16:09:18.661Z,97755.16
2022-11-21T16:11:45.343Z,97742.75
2022-11-21T16:14:15.464Z,97733.66
2022-11-21T16:16:44.022Z,97706.03
2022-11-21T16:19:15.139Z,97703.84
2022-11-21T16:21:42.908Z,97694.72
2022-11-21T16:24:09.673Z,97678.91
2022-11-21T16:26:36.694Z,97685.09
2022-11-21T16:29:05.586Z,97694.59
2022-11-21T16:31:33.359Z,97691.41
2022-11-21T16:34:00.712Z,97706.69
2022-11-21T16:36:30.565Z,97700.03
2022-11-21T16:39:01.848Z,97697.53
2022-11-21T16:41:30.307Z,97704.31
2022-11-21T16:43:57.115Z,97696.84
2022-11-21T16:46:25.127Z,97689.31
2022-11-21T16:49:01.016Z,97681.78
2022-11-21T16:51:29.313Z,97685.28
2022-11-21T16:53:58.083Z,97680.28
2022-11-21T16:56:26.977Z,97691.34
2022-11-21T16:58:53.991Z,97687.28
2022-11-21T17:01:24.553Z,97687.28
2022-11-21T17:03:52.665Z,97686.53
2022-11-21T17:06:23.796Z,97675.69
2022-11-21T17:08:51.049Z,97683.28
2022-11-21T17:11:29.052Z,97676.53
2022-11-21T17:14:00.823Z,97679.06
2022-11-21T17:16:27.737Z,97670.66
2022-11-21T17:18:56.806Z,97662.28
2022-11-21T17:21:23.783Z,97665.72
2022-11-21T17:23:50.962Z,97642.25
2022-11-21T17:26:29.206Z,97644.88
2022-11-21T17:29:03.431Z,97630.63
2022-11-21T17:31:31.170Z,97622.31
2022-11-21T17:34:00.514Z,97625.66
2022-11-21T17:36:30.041Z,97632.47
2022-11-21T17:38:57.061Z,97634.25
2022-11-21T17:41:25.328Z,97614.94
2022-11-21T17:43:58.584Z,97615.03
2022-11-21T17:46:26.208Z,97620.19
2022-11-21T17:48:58.025Z,97626.13
2022-11-21T17:51:33.393Z,97630.41
2022-11-21T17:54:01.842Z,97636.34
2022-11-21T17:56:32.391Z,97629.56
2022-11-21T17:58:59.519Z,97633.75
2022-11-21T18:01:26.920Z,97628.69
2022-11-21T18:04:02.314Z,97622.78
2022-11-21T18:06:38.902Z,97626.13
2022-11-21T18:09:11.326Z,97626.91
2022-11-21T18:11:40.465Z,97615.84
2022-11-21T18:14:10.187Z,97613.28
2022-11-21T18:16:39.215Z,97613.22
2022-11-21T18:19:06.394Z,97604.81
2022-11-21T18:21:36.197Z,97601.41
2022-11-21T18:24:03.257Z,97592.91
2022-11-21T18:26:38.698Z,97571.84
2022-11-21T18:31:56.112Z,97574.56
2022-11-21T18:34:22.821Z,97576.34
2022-11-21T18:36:49.556Z,97578.03
2022-11-21T18:39:16.261Z,97586.53
2022-11-21T18:41:43.944Z,97573.03
2022-11-21T18:44:15.819Z,97569.69
2022-11-21T18:46:45.315Z,97572.22
2022-11-21T18:49:12.061Z,97571.34
2022-11-21T18:51:38.767Z,97565.41
2022-11-21T18:54:08.565Z,97561.25
2022-11-21T18:56:38.243Z,97557.00
2022-11-21T18:59:06.437Z,97538.56
2022-11-21T19:01:36.032Z,97544.41
2022-11-21T19:04:03.589Z,97539.34
2022-11-21T19:06:30.386Z,97533.44
2022-11-21T19:08:58.593Z,97525.84
2022-11-21T19:11:28.833Z,97523.31
2022-11-21T19:13:57.464Z,97517.31
2022-11-21T19:16:27.301Z,97516.50
2022-11-21T19:21:42.940Z,97505.59
2022-11-21T19:24:14.642Z,97500.53
2022-11-21T19:26:42.388Z,97498.81
2022-11-21T19:29:10.251Z,97493.75
2022-11-21T19:31:44.243Z,97494.47
2022-11-21T19:34:16.146Z,97493.53
2022-11-21T19:36:44.564Z,97494.34
2022-11-21T19:39:12.202Z,97490.03
2022-11-21T19:41:39.715Z,97489.97
2022-11-21T19:44:06.600Z,97487.31
2022-11-21T19:46:38.689Z,97486.34
2022-11-21T19:49:07.948Z,97481.16
2022-11-21T19:51:41.721Z,97476.84
2022-11-21T19:54:12.415Z,97462.34
2022-11-21T19:56:39.627Z,97461.41
2022-11-21T19:59:06.534Z,97457.06
2022-11-21T20:01:35.334Z,97451.19
2022-11-21T20:04:05.828Z,97431.03
2022-11-21T20:06:36.229Z,97431.16
2022-11-21T20:09:08.371Z,97430.44
2022-11-21T20:11:36.535Z,97419.63
2022-11-21T20:14:03.372Z,97422.31
2022-11-21T20:16:40.160Z,97408.13
2022-11-21T20:19:11.826Z,97412.41
2022-11-21T20:21:39.379Z,97413.34
2022-11-21T20:24:07.215Z,97411.72
2022-11-21T20:26:36.228Z,97409.13
2022-11-21T20:29:04.532Z,97404.88
2022-11-21T20:31:34.985Z,97409.13
2022-11-21T20:34:12.396Z,97404.06
2022-11-21T20:36:40.413Z,97393.03
2022-11-21T20:39:14.209Z,97391.28
2022-11-21T20:41:41.967Z,97399.69
2022-11-21T20:47:02.367Z,97400.53
2022-11-21T20:49:31.094Z,97384.50
2022-11-21T20:54:45.485Z,97385.34
2022-11-21T20:57:15.227Z,97379.41
2022-11-21T20:59:42.842Z,97392.81
2022-11-21T21:02:14.356Z,97388.53
2022-11-21T21:04:41.688Z,97389.34
2022-11-21T21:07:08.679Z,97393.47
2022-11-21T21:09:35.442Z,97382.47
2022-11-21T21:12:02.180Z,97378.16
2022-11-21T21:14:28.995Z,97378.06
2022-11-21T21:16:55.751Z,97379.72
2022-11-21T21:19:22.646Z,97362.69
2022-11-21T21:21:49.398Z,97360.22
2022-11-21T21:24:17.066Z,97360.06
2022-11-21T21:26:47.327Z,97351.63
2022-11-21T21:29:20.270Z,97349.88
2022-11-21T21:31:51.541Z,97352.41
2022-11-21T21:34:20.671Z,97343.09
2022-11-21T21:36:47.983Z,97342.22
2022-11-21T21:39:14.929Z,97342.28
2022-11-21T21:41:45.717Z,97341.63
2022-11-21T21:44:13.153Z,97342.50
2022-11-21T21:46:39.983Z,97351.91
2022-11-21T21:49:06.768Z,97346.06
2022-11-21T21:51:33.487Z,97352.84
2022-11-21T21:54:00.639Z,97354.59
2022-11-21T21:56:29.195Z,97357.09
2022-11-21T21:58:59.666Z,97364.63
2022-11-21T22:01:30.176Z,97353.72
2022-11-21T22:04:03.468Z,97357.06
2022-11-21T22:06:34.159Z,97367.22
2022-11-21T22:09:02.109Z,97371.47
2022-11-21T22:11:32.216Z,97357.94
2022-11-21T22:14:02.575Z,97354.50
2022-11-21T22:16:30.353Z,97346.94
2022-11-21T22:18:57.742Z,97349.44
2022-11-21T22:21:33.878Z,97336.88
2022-11-21T22:24:27.594Z,97337.81
2022-11-21T22:26:55.097Z,97336.16
2022-11-21T22:29:22.037Z,97336.16
2022-11-21T22:31:48.718Z,97341.22
2022-11-21T22:34:15.622Z,97331.16
2022-11-21T22:36:43.242Z,97338.69
2022-11-21T22:39:09.993Z,97343.00
2022-11-21T22:41:36.800Z,97341.34
2022-11-21T22:44:03.686Z,97329.56
2022-11-21T22:46:31.305Z,97335.56
2022-11-21T22:48:58.715Z,97331.44
2022-11-21T22:51:31.432Z,97331.56
2022-11-21T22:53:58.227Z,97330.13
2022-11-21T22:56:26.490Z,97336.13
2022-11-21T22:58:53.924Z,97333.78
2022-11-21T23:01:25.924Z,97333.13
2022-11-21T23:03:55.345Z,97332.47
2022-11-21T23:06:25.159Z,97329.16
2022-11-21T23:08:54.171Z,97333.44
2022-11-21T23:11:29.258Z,97336.84
2022-11-21T23:13:57.276Z,97325.91
2022-11-21T23:16:25.483Z,97329.25
2022-11-21T23:18:53.605Z,97327.66
2022-11-21T23:21:22.368Z,97322.81
2022-11-21T23:23:49.122Z,97332.97
2022-11-21T23:26:15.856Z,97336.50
2022-11-21T23:28:42.679Z,97321.47
2022-11-21T23:31:10.724Z,97328.25
2022-11-21T23:33:37.540Z,97333.38
2022-11-21T23:36:04.860Z,97334.25
2022-11-21T23:38:31.996Z,97343.44
2022-11-21T23:40:58.780Z,97350.00
2022-11-21T23:43:25.549Z,97348.22
2022-11-21T23:45:53.587Z,97344.81
2022-11-21T23:48:21.739Z,97348.88
2022-11-21T23:50:50.716Z,97342.09
2022-11-21T23:53:18.585Z,97352.94
2022-11-21T23:55:45.754Z,97348.59
2022-11-21T23:58:13.132Z,97348.50
